createdAt,value
2023-05-16T00:01:45.725Z,99984.84
2023-05-16T00:04:16.269Z,99985.22
2023-05-16T00:06:46.800Z,99983.66
2023-05-16T00:09:17.352Z,99979.53
2023-05-16T00:11:49.777Z,99985.72
2023-05-16T00:14:21.921Z,99983.06
2023-05-16T00:16:52.569Z,99988.28
2023-05-16T00:19:23.024Z,99987.44
2023-05-16T00:21:54.713Z,99978.56
2023-05-16T00:24:25.457Z,99981.72
2023-05-16T00:26:55.991Z,99978.88
2023-05-16T00:29:26.851Z,99993.78
2023-05-16T00:31:57.605Z,99979.06
2023-05-16T00:34:28.175Z,99980.78
2023-05-16T00:36:58.732Z,99991.34
2023-05-16T00:39:29.525Z,99980.09
2023-05-16T00:42:00.401Z,99986.56
2023-05-16T00:44:31.446Z,99979.88
2023-05-16T00:47:04.147Z,99984.19
2023-05-16T00:49:33.744Z,99979.34
2023-05-16T00:52:04.977Z,99974.72
2023-05-16T00:54:37.680Z,99964.44
2023-05-16T00:57:09.800Z,99963.47
2023-05-16T00:59:40.235Z,99959.66
2023-05-16T01:02:10.901Z,99962.75
2023-05-16T01:04:42.186Z,99962.91
2023-05-16T01:07:12.704Z,99961.25
2023-05-16T01:09:46.060Z,99963.03
2023-05-16T01:12:31.529Z,99963.38
2023-05-16T01:15:08.880Z,99956.72
2023-05-16T01:17:55.476Z,99953.19
2023-05-16T01:20:40.094Z,99953.13
2023-05-16T01:24:05.167Z,99947.25
2023-05-16T01:26:37.934Z,99947.28
2023-05-16T01:29:10.195Z,99949.28
2023-05-16T01:31:40.681Z,99944.91
2023-05-16T01:34:11.125Z,99953.72
2023-05-16T01:36:59.581Z,99960.50
2023-05-16T01:39:44.695Z,99963.28
2023-05-16T01:42:21.215Z,99967.38
2023-05-16T01:45:07.052Z,99965.13
2023-05-16T01:47:40.442Z,99961.53
2023-05-16T01:50:22.332Z,99961.84
2023-05-16T01:52:58.590Z,99969.06
2023-05-16T01:55:53.519Z,99960.50
2023-05-16T01:58:27.164Z,99976.31
2023-05-16T02:01:01.992Z,99955.41
2023-05-16T02:03:36.899Z,99956.28
2023-05-16T02:06:07.530Z,99947.13
2023-05-16T02:08:37.963Z,99953.44
2023-05-16T02:11:08.318Z,99943.13
2023-05-16T02:13:39.074Z,99939.03
2023-05-16T02:16:09.885Z,99937.88
2023-05-16T02:18:41.109Z,99956.38
2023-05-16T02:21:11.533Z,99937.59
2023-05-16T02:23:42.180Z,99949.69
2023-05-16T02:26:12.591Z,99941.38
2023-05-16T02:28:42.995Z,99937.63
2023-05-16T02:31:13.430Z,99932.47
2023-05-16T02:33:43.846Z,99939.97
2023-05-16T02:36:14.342Z,99935.53
2023-05-16T02:38:45.536Z,99947.09
2023-05-16T02:41:16.021Z,99940.38
2023-05-16T02:43:47.096Z,99936.03
2023-05-16T02:46:28.827Z,99941.00
2023-05-16T02:48:59.526Z,99941.00
2023-05-16T02:51:30.784Z,99935.22
2023-05-16T02:54:04.230Z,99925.88
2023-05-16T02:56:34.609Z,99911.97
2023-05-16T02:59:05.793Z,99916.06
2023-05-16T03:01:36.404Z,99917.91
2023-05-16T03:04:08.141Z,99916.47
2023-05-16T03:06:38.561Z,99921.75
2023-05-16T03:09:09.360Z,99927.63
2023-05-16T03:11:39.791Z,99907.31
2023-05-16T03:14:10.907Z,99905.22
2023-05-16T03:16:43.146Z,99906.75
2023-05-16T03:19:13.052Z,99899.69
2023-05-16T03:21:43.444Z,99897.00
2023-05-16T03:24:15.834Z,99899.16
2023-05-16T03:26:46.860Z,99891.00
2023-05-16T03:29:17.192Z,99894.59
2023-05-16T03:31:47.659Z,99903.47
2023-05-16T03:34:17.994Z,99892.97
2023-05-16T03:36:48.418Z,99893.13
2023-05-16T03:39:19.567Z,99885.03
2023-05-16T03:41:50.048Z,99888.19
2023-05-16T03:44:20.638Z,99884.34
2023-05-16T03:46:50.832Z,99890.22
2023-05-16T03:49:22.520Z,99890.00
2023-05-16T03:51:52.863Z,99878.09
2023-05-16T03:54:24.255Z,99869.03
2023-05-16T03:56:54.758Z,99871.41
2023-05-16T03:59:25.133Z,99865.47
2023-05-16T04:01:55.623Z,99865.78
2023-05-16T04:04:26.088Z,99855.88
2023-05-16T04:06:56.467Z,99862.28
2023-05-16T04:09:45.172Z,99845.38
2023-05-16T04:12:15.546Z,99848.09
2023-05-16T04:14:46.018Z,99850.00
2023-05-16T04:17:16.493Z,99848.59
2023-05-16T04:19:46.903Z,99837.25
2023-05-16T04:22:17.513Z,99854.63
2023-05-16T04:24:47.921Z,99846.31
2023-05-16T04:27:18.394Z,99842.50
2023-05-16T04:29:48.780Z,99840.91
2023-05-16T04:32:19.813Z,99825.50
2023-05-16T04:34:51.575Z,99834.19
2023-05-16T04:37:22.418Z,99830.91
2023-05-16T04:39:53.060Z,99829.59
2023-05-16T04:42:23.808Z,99823.50
2023-05-16T04:44:54.192Z,99822.69
2023-05-16T04:47:24.678Z,99819.69
2023-05-16T04:49:55.195Z,99832.44
2023-05-16T04:52:25.825Z,99818.81
2023-05-16T04:54:56.456Z,99824.59
2023-05-16T04:57:26.954Z,99819.66
2023-05-16T04:59:57.600Z,99831.31
2023-05-16T05:02:28.871Z,99826.03
2023-05-16T05:04:59.324Z,99818.75
2023-05-16T05:07:30.718Z,99825.03
2023-05-16T05:10:01.373Z,99831.03
2023-05-16T05:12:32.314Z,99834.72
2023-05-16T05:15:02.788Z,99828.88
2023-05-16T05:17:33.247Z,99822.16
2023-05-16T05:20:08.394Z,99820.22
2023-05-16T05:22:38.813Z,99818.25
2023-05-16T05:25:09.860Z,99828.94
2023-05-16T05:27:40.214Z,99812.69
2023-05-16T05:30:11.296Z,99831.25
2023-05-16T05:32:59.840Z,99821.50
2023-05-16T05:35:30.509Z,99840.91
2023-05-16T05:38:01.351Z,99818.72
2023-05-16T05:40:31.734Z,99814.59
2023-05-16T05:43:02.141Z,99818.38
2023-05-16T05:45:32.631Z,99821.81
2023-05-16T05:48:03.152Z,99816.22
2023-05-16T05:50:33.656Z,99830.78
2023-05-16T05:53:04.305Z,99821.44
2023-05-16T05:55:34.887Z,99812.16
2023-05-16T05:58:07.174Z,99820.41
2023-05-16T06:00:37.290Z,99831.25
2023-05-16T06:03:08.184Z,99825.81
2023-05-16T06:05:38.813Z,99821.91
2023-05-16T06:08:09.646Z,99826.56
2023-05-16T06:10:40.083Z,99823.84
2023-05-16T06:13:10.917Z,99823.16
2023-05-16T06:15:41.594Z,99817.66
2023-05-16T06:18:12.055Z,99831.03
2023-05-16T06:20:42.434Z,99826.25
2023-05-16T06:23:12.916Z,99822.63
2023-05-16T06:25:43.289Z,99812.72
2023-05-16T06:28:13.669Z,99816.06
2023-05-16T06:30:44.065Z,99816.84
2023-05-16T06:33:14.463Z,99814.97
2023-05-16T06:35:44.954Z,99804.50
2023-05-16T06:38:15.452Z,99802.75
2023-05-16T06:40:45.821Z,99807.03
2023-05-16T06:43:16.623Z,99800.13
2023-05-16T06:45:50.110Z,99800.25
2023-05-16T06:48:21.374Z,99800.09
2023-05-16T06:50:55.371Z,99809.00
2023-05-16T06:53:25.864Z,99797.94
2023-05-16T06:55:56.636Z,99799.38
2023-05-16T06:58:27.049Z,99799.22
2023-05-16T07:00:57.649Z,99801.50
2023-05-16T07:03:28.243Z,99800.13
2023-05-16T07:05:59.620Z,99803.88
2023-05-16T07:08:29.890Z,99810.97
2023-05-16T07:11:00.578Z,99803.56
2023-05-16T07:13:31.035Z,99810.34
2023-05-16T07:16:01.493Z,99807.75
2023-05-16T07:18:31.835Z,99813.41
2023-05-16T07:21:02.297Z,99811.63
2023-05-16T07:23:32.770Z,99804.44
2023-05-16T07:26:03.183Z,99811.34
2023-05-16T07:28:33.601Z,99801.50
2023-05-16T07:31:04.227Z,99813.34
2023-05-16T07:33:34.627Z,99810.81
2023-05-16T07:36:16.226Z,99804.44
2023-05-16T07:38:47.226Z,99813.03
2023-05-16T07:41:17.599Z,99805.53
2023-05-16T07:43:48.068Z,99807.84
2023-05-16T07:46:18.558Z,99822.75
2023-05-16T07:48:48.889Z,99819.13
2023-05-16T07:51:19.582Z,99815.13
2023-05-16T07:53:50.026Z,99814.50
2023-05-16T07:56:20.743Z,99815.66
2023-05-16T07:58:52.030Z,99810.81
2023-05-16T08:01:40.413Z,99815.50
2023-05-16T08:04:10.837Z,99815.97
2023-05-16T08:06:44.841Z,99808.59
2023-05-16T08:09:15.435Z,99807.81
2023-05-16T08:11:48.867Z,99810.72
2023-05-16T08:14:20.338Z,99815.03
2023-05-16T08:16:50.986Z,99811.50
2023-05-16T08:19:21.519Z,99821.38
2023-05-16T08:21:52.195Z,99816.50
2023-05-16T08:24:22.852Z,99808.78
2023-05-16T08:26:56.246Z,99809.81
2023-05-16T08:29:27.847Z,99807.13
2023-05-16T08:31:58.233Z,99818.06
2023-05-16T08:34:28.734Z,99830.94
2023-05-16T08:36:59.178Z,99823.75
2023-05-16T08:39:29.569Z,99822.63
2023-05-16T08:42:00.504Z,99823.50
2023-05-16T08:44:31.456Z,99832.34
2023-05-16T08:47:19.352Z,99826.28
2023-05-16T08:49:54.409Z,99833.00
2023-05-16T08:52:32.198Z,99834.66
2023-05-16T08:55:11.843Z,99825.25
2023-05-16T08:57:43.552Z,99821.94
2023-05-16T09:00:15.086Z,99822.03
2023-05-16T09:02:48.823Z,99824.00
2023-05-16T09:05:20.037Z,99829.47
2023-05-16T09:07:50.766Z,99828.56
2023-05-16T09:10:21.446Z,99822.69
2023-05-16T09:12:52.755Z,99826.19
2023-05-16T09:15:23.353Z,99827.44
2023-05-16T09:17:54.156Z,99826.72
2023-05-16T09:20:24.653Z,99821.66
2023-05-16T09:22:57.992Z,99828.44
2023-05-16T09:25:34.109Z,99822.13
2023-05-16T09:28:04.868Z,99820.41
2023-05-16T09:30:36.999Z,99824.44
2023-05-16T09:33:09.761Z,99827.75
2023-05-16T09:35:45.259Z,99822.97
2023-05-16T09:38:20.051Z,99843.38
2023-05-16T09:40:50.514Z,99828.47
2023-05-16T09:43:24.646Z,99823.09
2023-05-16T09:45:56.878Z,99828.41
2023-05-16T09:48:30.059Z,99829.34
2023-05-16T09:51:05.592Z,99832.44
2023-05-16T09:53:37.041Z,99835.03
2023-05-16T09:56:13.896Z,99833.41
2023-05-16T09:58:48.788Z,99845.13
2023-05-16T10:01:19.411Z,99837.28
2023-05-16T10:03:50.026Z,99840.81
2023-05-16T10:06:21.196Z,99836.66
2023-05-16T10:08:53.305Z,99831.19
2023-05-16T10:11:24.061Z,99838.22
2023-05-16T10:13:57.653Z,99839.94
2023-05-16T10:16:28.965Z,99843.78
2023-05-16T10:19:00.266Z,99850.56
2023-05-16T10:21:54.114Z,99846.00
2023-05-16T10:24:31.374Z,99855.22
2023-05-16T10:27:02.039Z,99856.00
2023-05-16T10:29:43.036Z,99847.34
2023-05-16T10:32:26.927Z,99858.53
2023-05-16T10:34:57.777Z,99869.88
2023-05-16T10:37:29.529Z,99871.38
2023-05-16T10:40:04.014Z,99875.63
2023-05-16T10:42:35.578Z,99874.31
2023-05-16T10:45:26.374Z,99871.56
2023-05-16T10:47:57.979Z,99874.38
2023-05-16T10:50:47.478Z,99870.56
2023-05-16T10:53:25.802Z,99875.06
2023-05-16T10:56:02.380Z,99877.72
2023-05-16T10:58:44.056Z,99874.56
2023-05-16T11:01:33.320Z,99894.56
2023-05-16T11:04:06.288Z,99893.63
2023-05-16T11:06:45.778Z,99903.81
2023-05-16T11:09:27.004Z,99899.00
2023-05-16T11:12:07.948Z,99898.28
2023-05-16T11:14:49.094Z,99898.47
2023-05-16T11:17:23.933Z,99905.13
2023-05-16T11:20:02.297Z,99911.56
2023-05-16T11:22:35.163Z,99920.28
2023-05-16T11:25:10.823Z,99923.28
2023-05-16T11:27:49.534Z,99928.69
2023-05-16T11:30:23.456Z,99945.09
2023-05-16T11:32:54.161Z,99958.44
2023-05-16T11:35:24.642Z,99962.56
2023-05-16T11:37:55.261Z,99961.34
2023-05-16T11:40:28.420Z,99975.00
2023-05-16T11:43:07.309Z,99974.19
2023-05-16T11:45:38.467Z,99991.38
2023-05-16T11:48:10.175Z,99996.63
2023-05-16T11:50:42.921Z,100004.00
2023-05-16T11:53:13.342Z,100004.41
2023-05-16T11:55:44.685Z,100012.78
2023-05-16T11:58:34.676Z,100017.97
2023-05-16T12:01:11.177Z,100025.53
2023-05-16T12:03:42.491Z,100018.81
2023-05-16T12:06:13.139Z,100023.56
2023-05-16T12:08:53.036Z,100019.50
2023-05-16T12:11:25.961Z,100025.66
2023-05-16T12:13:56.821Z,100037.09
2023-05-16T12:16:27.590Z,100036.09
2023-05-16T12:18:58.414Z,100044.53
2023-05-16T12:21:29.124Z,100051.22
2023-05-16T12:24:00.441Z,100061.09
2023-05-16T12:26:34.227Z,100077.03
2023-05-16T12:29:07.310Z,100079.31
2023-05-16T12:31:43.883Z,100088.63
2023-05-16T12:34:25.084Z,100087.19
2023-05-16T12:36:56.155Z,100101.41
2023-05-16T12:39:26.714Z,100102.38
2023-05-16T12:41:57.213Z,100089.19
2023-05-16T12:44:32.798Z,100093.25
2023-05-16T12:47:04.271Z,100098.56
2023-05-16T12:49:35.924Z,100094.53
2023-05-16T12:52:07.495Z,100104.81
2023-05-16T12:54:37.961Z,100110.38
2023-05-16T12:57:11.722Z,100105.84
2023-05-16T12:59:42.173Z,100105.56
2023-05-16T13:02:13.651Z,100104.28
2023-05-16T13:04:45.214Z,100100.69
2023-05-16T13:07:15.694Z,100110.81
2023-05-16T13:09:46.216Z,100110.09
2023-05-16T13:12:17.322Z,100119.75
2023-05-16T13:14:47.916Z,100119.09
2023-05-16T13:17:18.250Z,100119.28
2023-05-16T13:19:49.096Z,100123.13
2023-05-16T13:22:19.726Z,100118.28
2023-05-16T13:24:51.110Z,100120.56
2023-05-16T13:27:21.498Z,100108.81
2023-05-16T13:32:45.862Z,100121.59
2023-05-16T13:35:16.416Z,100113.06
2023-05-16T13:37:47.432Z,100110.19
2023-05-16T13:40:18.869Z,100116.16
2023-05-16T13:42:49.395Z,100124.41
2023-05-16T13:45:20.276Z,100130.97
2023-05-16T13:47:50.761Z,100129.50
2023-05-16T13:50:22.120Z,100134.78
2023-05-16T13:52:53.722Z,100134.38
2023-05-16T13:55:24.639Z,100136.41
2023-05-16T13:57:55.140Z,100135.91
2023-05-16T14:00:43.588Z,100135.94
2023-05-16T14:03:15.644Z,100140.66
2023-05-16T14:05:46.292Z,100149.78
2023-05-16T14:08:16.676Z,100151.31
2023-05-16T14:10:47.295Z,100145.88
2023-05-16T14:13:17.870Z,100152.09
2023-05-16T14:15:48.563Z,100154.13
2023-05-16T14:18:19.110Z,100161.75
2023-05-16T14:20:49.910Z,100158.88
2023-05-16T14:23:20.256Z,100164.13
2023-05-16T14:25:50.998Z,100163.13
2023-05-16T14:28:21.660Z,100166.31
2023-05-16T14:30:52.150Z,100171.69
2023-05-16T14:33:22.947Z,100168.88
2023-05-16T14:35:53.629Z,100174.38
2023-05-16T14:38:24.006Z,100170.91
2023-05-16T14:40:54.461Z,100175.47
2023-05-16T14:43:24.960Z,100160.53
2023-05-16T14:45:55.381Z,100154.59
2023-05-16T14:48:25.809Z,100154.34
2023-05-16T14:50:56.285Z,100159.09
2023-05-16T14:53:26.951Z,100154.09
2023-05-16T14:55:57.436Z,100142.22
2023-05-16T14:58:28.563Z,100150.41
2023-05-16T15:00:59.141Z,100156.72
2023-05-16T15:03:32.027Z,100150.78
2023-05-16T15:06:04.233Z,100156.22
2023-05-16T15:08:34.462Z,100161.38
2023-05-16T15:11:04.928Z,100164.41
2023-05-16T15:13:35.294Z,100169.41
2023-05-16T15:16:05.961Z,100164.72
2023-05-16T15:18:36.477Z,100174.28
2023-05-16T15:21:07.252Z,100174.28
2023-05-16T15:23:38.089Z,100173.50
2023-05-16T15:26:08.511Z,100179.34
2023-05-16T15:28:39.007Z,100165.16
2023-05-16T15:31:09.583Z,100176.16
2023-05-16T15:33:40.003Z,100172.44
2023-05-16T15:36:10.719Z,100171.44
2023-05-16T15:38:45.886Z,100175.09
2023-05-16T15:41:32.079Z,100173.19
2023-05-16T15:44:07.734Z,100174.06
2023-05-16T15:46:38.256Z,100168.25
2023-05-16T15:49:10.894Z,100172.19
2023-05-16T15:51:40.768Z,100170.97
2023-05-16T15:54:11.689Z,100168.50
2023-05-16T15:56:42.156Z,100163.53
2023-05-16T15:59:12.877Z,100165.25
2023-05-16T16:01:43.457Z,100160.91
2023-05-16T16:04:13.987Z,100159.25
2023-05-16T16:06:44.416Z,100151.38
2023-05-16T16:09:14.852Z,100159.81
2023-05-16T16:11:45.391Z,100156.84
2023-05-16T16:14:15.854Z,100159.75
2023-05-16T16:16:46.939Z,100160.56
2023-05-16T16:19:17.774Z,100165.88
2023-05-16T16:21:48.675Z,100156.47
2023-05-16T16:24:19.302Z,100161.38
2023-05-16T16:26:49.833Z,100154.09
2023-05-16T16:29:20.505Z,100158.53
2023-05-16T16:31:51.001Z,100162.25
2023-05-16T16:34:23.275Z,100148.38
2023-05-16T16:36:54.042Z,100151.13
2023-05-16T16:39:24.579Z,100150.66
2023-05-16T16:41:55.330Z,100142.13
2023-05-16T16:44:25.745Z,100148.41
2023-05-16T16:46:56.490Z,100131.00
2023-05-16T16:49:27.162Z,100136.41
2023-05-16T16:51:57.778Z,100139.91
2023-05-16T16:54:29.559Z,100147.88
2023-05-16T16:56:59.955Z,100144.19
2023-05-16T16:59:30.390Z,100153.41
2023-05-16T17:02:01.028Z,100159.94
2023-05-16T17:04:31.487Z,100160.81
2023-05-16T17:07:01.938Z,100153.25
2023-05-16T17:09:32.324Z,100150.78
2023-05-16T17:12:09.834Z,100167.13
2023-05-16T17:14:40.266Z,100171.53
2023-05-16T17:17:10.748Z,100158.66
2023-05-16T17:19:41.261Z,100172.84
2023-05-16T17:22:12.134Z,100165.31
2023-05-16T17:24:42.683Z,100174.97
2023-05-16T17:27:14.200Z,100179.88
2023-05-16T17:29:44.719Z,100183.66
2023-05-16T17:32:15.117Z,100179.41
2023-05-16T17:34:45.865Z,100171.38
2023-05-16T17:37:16.528Z,100174.00
2023-05-16T17:39:46.976Z,100172.63
2023-05-16T17:42:17.613Z,100180.63
2023-05-16T17:44:48.082Z,100182.00
2023-05-16T17:47:20.861Z,100194.28
2023-05-16T17:49:51.838Z,100192.66
2023-05-16T17:52:23.661Z,100196.84
2023-05-16T17:54:54.424Z,100194.63
2023-05-16T17:57:24.832Z,100192.66
2023-05-16T17:59:55.432Z,100204.69
2023-05-16T18:02:25.981Z,100197.34
2023-05-16T18:04:56.402Z,100199.22
2023-05-16T18:07:30.811Z,100186.97
2023-05-16T18:10:01.343Z,100177.69
2023-05-16T18:12:31.931Z,100194.47
2023-05-16T18:15:02.355Z,100189.94
2023-05-16T18:17:33.168Z,100187.38
2023-05-16T18:20:11.035Z,100199.31
2023-05-16T18:22:42.298Z,100198.66
2023-05-16T18:25:13.295Z,100194.41
2023-05-16T18:27:44.028Z,100189.47
2023-05-16T18:30:15.116Z,100183.66
2023-05-16T18:32:45.825Z,100182.19
2023-05-16T18:35:16.377Z,100183.97
2023-05-16T18:37:47.335Z,100180.72
2023-05-16T18:40:19.499Z,100190.31
2023-05-16T18:42:49.946Z,100194.16
2023-05-16T18:45:21.008Z,100193.94
2023-05-16T18:47:51.496Z,100186.94
2023-05-16T18:50:22.232Z,100188.31
2023-05-16T18:52:52.776Z,100196.59
2023-05-16T18:55:41.232Z,100196.69
2023-05-16T18:58:12.319Z,100190.44
2023-05-16T19:00:42.804Z,100188.44
2023-05-16T19:03:14.737Z,100198.72
2023-05-16T19:05:45.390Z,100190.31
2023-05-16T19:08:15.986Z,100195.19
2023-05-16T19:10:46.578Z,100210.38
2023-05-16T19:13:17.019Z,100203.25
2023-05-16T19:15:48.026Z,100204.19
2023-05-16T19:18:19.525Z,100205.72
2023-05-16T19:20:50.074Z,100206.41
2023-05-16T19:23:38.736Z,100209.22
2023-05-16T19:26:09.192Z,100215.41
2023-05-16T19:28:39.659Z,100205.81
2023-05-16T19:31:10.600Z,100206.53
2023-05-16T19:33:40.996Z,100202.34
2023-05-16T19:36:11.506Z,100209.94
2023-05-16T19:38:42.159Z,100216.97
2023-05-16T19:41:12.748Z,100215.81
2023-05-16T19:43:43.245Z,100217.06
2023-05-16T19:46:13.558Z,100220.03
2023-05-16T19:48:44.156Z,100227.69
2023-05-16T19:51:14.668Z,100233.31
2023-05-16T19:53:45.426Z,100235.97
2023-05-16T19:56:15.940Z,100238.84
2023-05-16T19:58:46.584Z,100236.88
2023-05-16T20:01:17.138Z,100239.03
2023-05-16T20:03:48.149Z,100235.56
2023-05-16T20:06:18.542Z,100234.50
2023-05-16T20:08:49.067Z,100228.94
2023-05-16T20:11:19.444Z,100226.50
2023-05-16T20:13:49.877Z,100222.72
2023-05-16T20:16:22.089Z,100224.75
2023-05-16T20:18:52.065Z,100220.00
2023-05-16T20:21:22.357Z,100220.41
2023-05-16T20:23:52.579Z,100222.19
2023-05-16T20:26:23.901Z,100224.25
2023-05-16T20:28:54.376Z,100221.97
2023-05-16T20:31:25.158Z,100222.56
2023-05-16T20:33:55.488Z,100225.56
2023-05-16T20:36:26.106Z,100224.91
2023-05-16T20:38:56.691Z,100235.16
2023-05-16T20:41:44.958Z,100229.38
2023-05-16T20:44:16.132Z,100228.09
2023-05-16T20:46:46.616Z,100230.66
2023-05-16T20:49:17.460Z,100234.94
2023-05-16T20:51:47.982Z,100245.44
2023-05-16T20:54:18.562Z,100245.34
2023-05-16T20:56:49.108Z,100249.91
2023-05-16T20:59:19.536Z,100244.97
2023-05-16T21:01:50.005Z,100241.03
2023-05-16T21:04:21.191Z,100240.25
2023-05-16T21:06:51.819Z,100232.63
2023-05-16T21:09:22.514Z,100238.59
2023-05-16T21:11:52.920Z,100241.09
2023-05-16T21:14:23.297Z,100250.00
2023-05-16T21:16:56.608Z,100254.44
2023-05-16T21:19:27.329Z,100258.41
2023-05-16T21:21:57.814Z,100263.25
2023-05-16T21:24:28.519Z,100262.53
2023-05-16T21:26:59.158Z,100247.91
2023-05-16T21:29:29.626Z,100247.31
2023-05-16T21:32:00.263Z,100251.19
2023-05-16T21:34:30.701Z,100248.66
2023-05-16T21:37:01.528Z,100256.19
2023-05-16T21:39:32.020Z,100253.44
2023-05-16T21:42:02.889Z,100261.19
2023-05-16T21:44:33.297Z,100256.31
2023-05-16T21:47:03.813Z,100265.22
2023-05-16T21:49:34.667Z,100265.97
2023-05-16T21:52:07.176Z,100266.72
2023-05-16T21:54:38.135Z,100268.44
2023-05-16T21:57:08.730Z,100260.84
2023-05-16T21:59:39.217Z,100261.06
2023-05-16T22:02:09.767Z,100261.94
2023-05-16T22:04:40.262Z,100262.44
2023-05-16T22:07:10.719Z,100262.31
2023-05-16T22:09:41.188Z,100257.88
2023-05-16T22:12:11.838Z,100262.44
2023-05-16T22:14:42.263Z,100262.63
2023-05-16T22:17:12.740Z,100267.84
2023-05-16T22:19:43.965Z,100262.56
2023-05-16T22:22:14.796Z,100262.44
2023-05-16T22:24:45.684Z,100269.41
2023-05-16T22:27:16.309Z,100273.34
2023-05-16T22:29:46.825Z,100269.47
2023-05-16T22:32:17.312Z,100264.06
2023-05-16T22:34:47.687Z,100265.66
2023-05-16T22:37:18.079Z,100265.66
2023-05-16T22:39:48.672Z,100261.09
2023-05-16T22:42:19.139Z,100257.19
2023-05-16T22:44:52.224Z,100256.28
2023-05-16T22:47:22.645Z,100260.25
2023-05-16T22:49:53.181Z,100254.25
2023-05-16T22:52:23.799Z,100260.03
2023-05-16T22:54:54.466Z,100249.41
2023-05-16T22:57:25.146Z,100246.88
2023-05-16T22:59:55.588Z,100242.00
2023-05-16T23:02:26.126Z,100231.16
2023-05-16T23:04:56.856Z,100225.75
2023-05-16T23:07:27.520Z,100221.31
2023-05-16T23:09:58.125Z,100216.72
2023-05-16T23:12:28.576Z,100230.31
2023-05-16T23:14:59.785Z,100230.56
2023-05-16T23:17:30.396Z,100231.66
2023-05-16T23:20:01.133Z,100231.72
2023-05-16T23:22:31.625Z,100238.13
2023-05-16T23:25:02.301Z,100244.97
2023-05-16T23:27:33.340Z,100242.06
2023-05-16T23:30:03.844Z,100231.66
2023-05-16T23:32:34.272Z,100234.66
2023-05-16T23:35:04.898Z,100238.00
2023-05-16T23:37:35.339Z,100236.44
2023-05-16T23:40:06.102Z,100241.28
2023-05-16T23:42:38.295Z,100233.34
2023-05-16T23:45:09.332Z,100232.91
2023-05-16T23:47:39.901Z,100250.97
2023-05-16T23:50:28.732Z,100232.81
2023-05-16T23:52:59.155Z,100252.84
2023-05-16T23:55:30.058Z,100240.09
2023-05-16T23:58:00.703Z,100233.16
